Time;durP1;ratioP1;P1;durP2;ratioP2;P2;SDS_P1;SDS_P2;PMS_P1;PMS_P2;Temp;Humidity;BMP_temperature;BMP_pressure;BME280_temperature;BME280_humidity;BME280_pressure;Samples;Min_cycle;Max_cycle;Signal;HPM_P1;HPM_P2
2022/09/02 00:00:59;;;;;;;0.35;0.25;;;;;;;20.27;100.00;100130.25;7389665;19;20025;-78
2022/09/02 00:03:27;;;;;;;1.33;0.55;;;;;;;20.21;100.00;100129.53;7384719;19;20018;-77
2022/09/02 00:05:53;;;;;;;1.08;0.47;;;;;;;20.15;100.00;100123.19;7389128;19;20014;-78
2022/09/02 00:08:20;;;;;;;0.40;0.30;;;;;;;20.11;100.00;100122.72;7389823;19;20018;-78
2022/09/02 00:10:46;;;;;;;3.78;0.63;;;;;;;20.05;100.00;100127.69;7387714;19;20024;-78
2022/09/02 00:13:14;;;;;;;0.77;0.32;;;;;;;20.09;100.00;100125.31;7388894;19;20014;-78
2022/09/02 00:15:42;;;;;;;1.13;0.25;;;;;;;20.07;100.00;100123.03;7387694;19;20027;-78
2022/09/02 00:18:12;;;;;;;2.38;0.40;;;;;;;20.09;100.00;100126.09;7385390;19;20125;-78
2022/09/02 00:20:40;;;;;;;;;;;;;;;20.08;100.00;100123.78;7386107;19;20018;-77
2022/09/02 00:23:07;;;;;;;0.73;0.47;;;;;;;20.07;100.00;100117.38;7388703;19;19923;-78
2022/09/02 00:25:35;;;;;;;2.90;0.45;;;;;;;20.06;100.00;100115.06;7389501;19;20025;-77
2022/09/02 00:28:03;;;;;;;0.80;0.20;;;;;;;20.03;100.00;100113.34;7385218;19;20056;-78
2022/09/02 00:30:29;;;;;;;4.45;0.85;;;;;;;20.03;100.00;100110.50;7389673;19;20015;-78
2022/09/02 00:32:55;;;;;;;1.92;0.90;;;;;;;19.98;100.00;100108.50;7386457;19;20018;-77
2022/09/02 00:35:21;;;;;;;9.68;1.17;;;;;;;19.97;100.00;100106.97;7385971;19;20604;-78
2022/09/02 00:37:47;;;;;;;2.88;0.28;;;;;;;19.97;100.00;100106.97;7384149;19;20015;-77
2022/09/02 00:40:15;;;;;;;0.90;0.45;;;;;;;19.96;100.00;100106.22;7385181;19;20018;-78
2022/09/02 00:42:41;;;;;;;1.08;0.55;;;;;;;20.00;100.00;100095.38;7386041;19;20488;-77
2022/09/02 00:45:08;;;;;;;0.43;0.20;;;;;;;20.01;100.00;100107.44;7383701;19;20468;-77
2022/09/02 00:47:35;;;;;;;1.63;0.93;;;;;;;20.01;100.00;100093.31;7382873;19;20014;-78
2022/09/02 00:50:06;;;;;;;0.47;0.43;;;;;;;19.99;100.00;100093.09;7384264;19;20022;-78
2022/09/02 00:52:38;;;;;;;2.08;0.65;;;;;;;19.95;100.00;100098.25;7389961;19;20015;-78
2022/09/02 00:55:10;;;;;;;1.95;0.45;;;;;;;20.01;100.00;100079.19;7385194;19;20094;-78
2022/09/02 00:57:40;;;;;;;0.77;0.45;;;;;;;19.96;100.00;100077.97;7384417;19;20118;-78
2022/09/02 01:00:16;;;;;;;2.72;0.28;;;;;;;19.90;100.00;100077.28;7386313;19;20030;-78
2022/09/02 01:02:47;;;;;;;0.60;0.60;;;;;;;19.94;100.00;100074.13;7380799;19;20011;-78
2022/09/02 01:05:16;;;;;;;0.68;0.40;;;;;;;19.96;100.00;100068.72;7385668;19;20015;-78
2022/09/02 01:07:44;;;;;;;0.85;0.47;;;;;;;20.00;100.00;100066.34;7384808;19;20029;-78
2022/09/02 01:10:14;;;;;;;13.27;0.73;;;;;;;19.95;100.00;100064.34;7387981;19;20357;-78
2022/09/02 01:12:41;;;;;;;0.95;0.63;;;;;;;19.99;100.00;100059.16;7386170;19;20026;-77
2022/09/02 01:15:09;;;;;;;5.82;0.65;;;;;;;19.94;100.00;100051.50;7388097;19;20019;-78
2022/09/02 01:17:41;;;;;;;3.90;1.00;;;;;;;19.87;100.00;100055.72;7382975;19;20484;-78
2022/09/02 01:20:12;;;;;;;0.73;0.40;;;;;;;19.84;100.00;100050.38;7386011;19;20018;-77
2022/09/02 01:22:40;;;;;;;0.80;0.38;;;;;;;19.81;100.00;100042.97;7383797;19;20015;-78
2022/09/02 01:25:31;;;;;;;4.47;0.73;;;;;;;19.82;100.00;100044.47;7383691;19;20019;-78
2022/09/02 01:28:00;;;;;;;2.20;0.43;;;;;;;19.77;100.00;100040.44;7383532;19;20090;-82
2022/09/02 01:30:27;;;;;;;1.05;0.80;;;;;;;19.73;100.00;100037.13;7388722;19;20018;-78
2022/09/02 01:32:54;;;;;;;0.45;0.43;;;;;;;19.67;100.00;100031.56;7385562;19;20053;-78
2022/09/02 01:35:20;;;;;;;2.08;0.65;;;;;;;19.63;100.00;100038.84;7384184;19;20018;-79
2022/09/02 01:37:47;;;;;;;5.22;1.17;;;;;;;19.56;100.00;100017.59;7382579;19;20471;-78
2022/09/02 01:40:16;;;;;;;3.13;0.88;;;;;;;19.48;100.00;100025.16;7382775;19;20029;-78
2022/09/02 01:42:43;;;;;;;1.20;0.75;;;;;;;19.44;100.00;100021.09;7383791;19;20022;-78
2022/09/02 01:45:10;;;;;;;0.80;0.60;;;;;;;19.35;100.00;100027.88;7383840;19;20033;-78
2022/09/02 01:47:36;;;;;;;0.30;0.20;;;;;;;19.18;100.00;100018.06;7388886;19;20582;-78
2022/09/02 01:50:06;;;;;;;1.92;1.13;;;;;;;19.14;100.00;100015.53;7393733;19;20049;-78
2022/09/02 01:52:33;;;;;;;1.50;0.70;;;;;;;19.15;100.00;100024.75;7397189;19;20022;-78
2022/09/02 01:55:01;;;;;;;0.60;0.45;;;;;;;19.16;100.00;100018.59;7392823;19;20025;-79
2022/09/02 01:57:27;;;;;;;1.25;0.90;;;;;;;19.19;100.00;100020.34;7390319;19;20540;-78
2022/09/02 01:59:53;;;;;;;1.33;0.85;;;;;;;19.18;100.00;100015.22;7389810;19;20018;-78
2022/09/02 02:02:22;;;;;;;2.92;0.75;;;;;;;19.18;100.00;100010.34;7389179;19;20018;-78
2022/09/02 02:04:49;;;;;;;2.45;0.77;;;;;;;19.22;100.00;100005.16;7388607;19;20029;-78
2022/09/02 02:07:18;;;;;;;1.08;0.85;;;;;;;19.19;100.00;100008.31;7392221;19;20029;-78
2022/09/02 02:09:45;;;;;;;0.30;0.30;;;;;;;19.13;100.00;100002.72;7390524;19;20452;-78
2022/09/02 02:12:15;;;;;;;0.70;0.70;;;;;;;19.11;100.00;100002.47;7390215;19;20014;-78
2022/09/02 02:14:42;;;;;;;0.85;0.40;;;;;;;19.06;100.00;99992.00;7391261;19;20034;-78
2022/09/02 02:17:08;;;;;;;3.00;0.32;;;;;;;19.06;100.00;99992.00;7392862;19;20018;-78
2022/09/02 02:19:35;;;;;;;0.75;0.40;;;;;;;19.03;100.00;99993.09;7388263;19;20026;-78
2022/09/02 02:22:01;;;;;;;1.88;0.32;;;;;;;19.00;100.00;99988.47;7388625;19;20499;-78
2022/09/02 02:24:28;;;;;;;1.15;0.32;;;;;;;19.01;100.00;99986.44;7390291;19;20019;-78
2022/09/02 02:26:54;;;;;;;0.80;0.25;;;;;;;19.02;100.00;99980.25;7391245;19;20043;-78
2022/09/02 02:29:21;;;;;;;0.35;0.30;;;;;;;19.06;100.00;99974.31;7389339;19;20373;-78
2022/09/02 02:31:48;;;;;;;1.80;0.70;;;;;;;19.09;100.00;99979.66;7394328;19;20018;-78
2022/09/02 02:34:14;;;;;;;14.48;1.33;;;;;;;19.11;100.00;99971.41;7390934;19;20155;-78
2022/09/02 02:36:42;;;;;;;0.30;0.30;;;;;;;19.21;100.00;99969.75;7392473;19;20018;-79
2022/09/02 02:39:10;;;;;;;2.42;0.80;;;;;;;19.30;100.00;99977.06;7388275;19;20471;-78
2022/09/02 02:41:39;;;;;;;3.88;0.77;;;;;;;19.32;100.00;99980.13;7389652;19;20346;-78
2022/09/02 02:44:05;;;;;;;1.52;0.80;;;;;;;19.34;100.00;99983.97;7390658;19;20022;-78
2022/09/02 02:46:34;;;;;;;4.47;0.70;;;;;;;19.39;100.00;99980.34;7392791;19;20029;-78
2022/09/02 02:49:04;;;;;;;0.82;0.77;;;;;;;19.35;100.00;99979.09;7390320;19;20471;-78
2022/09/02 02:51:31;;;;;;;2.85;0.65;;;;;;;19.36;100.00;99978.56;7392772;19;20583;-77
2022/09/02 02:53:58;;;;;;;5.35;1.20;;;;;;;19.37;100.00;99980.09;7390299;19;20043;-78
2022/09/02 02:56:27;;;;;;;2.30;0.77;;;;;;;19.36;100.00;99970.09;7391179;19;20022;-77
2022/09/02 02:58:53;;;;;;;4.75;0.75;;;;;;;19.30;100.00;99968.59;7385740;19;20006;-78
2022/09/02 03:01:20;;;;;;;6.60;0.98;;;;;;;19.26;100.00;99974.56;7394526;19;20014;-78
2022/09/02 03:03:46;;;;;;;2.78;0.75;;;;;;;19.24;100.00;99967.91;7391249;19;20077;-79
2022/09/02 03:06:12;;;;;;;0.90;0.90;;;;;;;19.23;100.00;99977.69;7391183;19;20041;-79
2022/09/02 03:08:38;;;;;;;6.53;0.55;;;;;;;19.23;100.00;99967.16;7391607;19;20045;-78
2022/09/02 03:11:06;;;;;;;1.35;0.38;;;;;;;19.25;100.00;99972.28;7389689;19;20678;-78
2022/09/02 03:13:36;;;;;;;2.80;0.47;;;;;;;19.25;100.00;99958.91;7389843;19;20014;-78
2022/09/02 03:16:05;;;;;;;4.53;0.55;;;;;;;19.29;100.00;99964.28;7390026;19;20127;-78
2022/09/02 03:18:33;;;;;;;3.60;1.07;;;;;;;19.31;100.00;99967.31;7387253;19;20010;-78
2022/09/02 03:21:01;;;;;;;1.65;0.75;;;;;;;19.38;100.00;99955.47;7387975;19;20037;-78
2022/09/02 03:23:27;;;;;;;4.75;1.17;;;;;;;19.35;100.00;99956.50;7387853;19;20015;-78
2022/09/02 03:25:53;;;;;;;1.67;1.02;;;;;;;19.34;100.00;99950.09;7391938;19;20082;-78
2022/09/02 03:28:28;;;;;;;0.57;0.52;;;;;;;19.35;100.00;99960.09;7389054;19;20025;-78
2022/09/02 03:30:54;;;;;;;9.98;1.20;;;;;;;19.35;100.00;99957.28;7390302;19;20014;-78
2022/09/02 03:33:20;;;;;;;2.00;0.88;;;;;;;19.36;100.00;99950.31;7389702;19;20010;-78
2022/09/02 03:35:47;;;;;;;2.80;0.63;;;;;;;19.37;100.00;99949.03;7388867;19;20468;-78
2022/09/02 03:38:14;;;;;;;2.95;0.85;;;;;;;19.32;100.00;99951.88;7387046;19;20078;-78
2022/09/02 03:40:42;;;;;;;4.38;0.88;;;;;;;19.33;100.00;99948.56;7388931;19;20014;-78
2022/09/02 03:43:08;;;;;;;3.17;1.08;;;;;;;19.31;100.00;99953.97;7389669;19;20018;-78
2022/09/02 03:45:39;;;;;;;4.57;1.10;;;;;;;19.26;100.00;99935.03;7388625;19;20022;-78
2022/09/02 03:48:05;;;;;;;2.55;1.15;;;;;;;19.16;100.00;99939.53;7387740;19;20015;-78
2022/09/02 03:50:38;;;;;;;0.90;0.47;;;;;;;19.09;100.00;99934.50;7388549;19;20100;-78
2022/09/02 03:53:06;;;;;;;8.07;1.10;;;;;;;19.05;100.00;99931.22;7393834;19;20018;-78
2022/09/02 03:55:34;;;;;;;7.63;1.05;;;;;;;19.01;100.00;99925.09;7389236;19;20022;-78
2022/09/02 03:58:01;;;;;;;4.57;0.90;;;;;;;19.10;100.00;99923.97;7386206;19;20014;-78
2022/09/02 04:00:28;;;;;;;2.67;0.80;;;;;;;19.17;100.00;99918.47;7387740;19;20017;-80
2022/09/02 04:02:57;;;;;;;3.92;1.23;;;;;;;19.27;100.00;99913.97;7386084;19;20018;-78
2022/09/02 04:05:23;;;;;;;6.13;1.63;;;;;;;19.20;100.00;99917.41;7386668;19;20090;-78
2022/09/02 04:07:54;;;;;;;7.47;0.87;;;;;;;19.12;100.00;99916.50;7386443;19;20636;-78
2022/09/02 04:10:20;;;;;;;2.03;0.95;;;;;;;19.07;100.00;99914.50;7387774;19;20014;-78
2022/09/02 04:12:49;;;;;;;3.85;0.98;;;;;;;19.06;100.00;99912.22;7387195;19;20130;-78
2022/09/02 04:15:16;;;;;;;6.95;1.45;;;;;;;19.11;100.00;99909.31;7386738;19;20476;-78
2022/09/02 04:17:42;;;;;;;3.65;1.08;;;;;;;19.08;100.00;99909.63;7384795;19;20784;-78
2022/09/02 04:20:13;;;;;;;2.40;0.77;;;;;;;18.97;100.00;99909.75;7385370;19;20035;-78
2022/09/02 04:22:40;;;;;;;3.42;0.52;;;;;;;18.97;100.00;99904.13;7385298;19;20726;-78
2022/09/02 04:25:07;;;;;;;2.85;1.30;;;;;;;18.99;100.00;99902.28;7383984;19;20033;-78
2022/09/02 04:27:34;;;;;;;5.20;0.82;;;;;;;19.02;100.00;99901.22;7383534;19;20019;-79
2022/09/02 04:30:01;;;;;;;2.08;0.65;;;;;;;18.99;100.00;99899.47;7386196;19;20021;-78
2022/09/02 04:32:30;;;;;;;2.15;0.65;;;;;;;19.03;100.00;99899.94;7386416;19;20681;-77
2022/09/02 04:34:58;;;;;;;4.05;1.33;;;;;;;19.09;100.00;99892.16;7386560;19;20018;-77
2022/09/02 04:37:26;;;;;;;8.48;2.35;;;;;;;19.15;100.00;99901.28;7391032;19;20044;-78
2022/09/02 04:39:53;;;;;;;3.80;1.52;;;;;;;19.16;100.00;99899.25;7386042;19;20015;-78
2022/09/02 04:42:20;;;;;;;3.50;1.52;;;;;;;19.20;100.00;99899.69;7384547;19;20010;-78
2022/09/02 04:44:46;;;;;;;3.15;0.63;;;;;;;19.00;100.00;99892.50;7384128;19;20010;-77
2022/09/02 04:47:12;;;;;;;3.40;1.05;;;;;;;18.82;100.00;99904.53;7389934;19;20043;-78
2022/09/02 04:49:42;;;;;;;2.78;1.23;;;;;;;18.79;100.00;99903.56;7385852;19;20018;-77
2022/09/02 04:52:09;;;;;;;3.72;1.17;;;;;;;18.81;100.00;99897.38;7388204;19;20015;-78
2022/09/02 04:54:38;;;;;;;6.05;1.00;;;;;;;18.73;100.00;99897.19;7386349;19;20024;-78
2022/09/02 04:57:06;;;;;;;0.68;0.60;;;;;;;18.73;100.00;99893.63;7388664;19;20018;-78
2022/09/02 04:59:35;;;;;;;10.27;2.40;;;;;;;18.68;100.00;99900.88;7385036;19;20113;-78
2022/09/02 05:02:08;;;;;;;2.63;1.45;;;;;;;18.68;100.00;99891.63;7386479;19;20018;-77
2022/09/02 05:04:35;;;;;;;4.82;0.95;;;;;;;18.70;100.00;99897.50;7384661;19;20100;-78
2022/09/02 05:07:03;;;;;;;3.75;1.67;;;;;;;18.72;100.00;99898.50;7387888;19;20383;-78
2022/09/02 05:09:32;;;;;;;3.05;1.50;;;;;;;18.79;100.00;99891.50;7385352;19;20524;-78
2022/09/02 05:12:03;;;;;;;2.45;1.23;;;;;;;18.81;100.00;99888.91;7386572;19;20038;-78
2022/09/02 05:14:36;;;;;;;1.63;0.95;;;;;;;18.88;100.00;99896.78;7384306;19;20051;-78
2022/09/02 05:17:06;;;;;;;7.53;1.50;;;;;;;18.84;100.00;99899.16;7386989;19;20053;-78
2022/09/02 05:19:32;;;;;;;2.38;1.05;;;;;;;18.86;100.00;99894.47;7382589;19;20014;-78
2022/09/02 05:22:00;;;;;;;3.58;1.45;;;;;;;18.85;100.00;99892.97;7383524;19;20509;-78
2022/09/02 05:24:33;;;;;;;2.35;0.85;;;;;;;18.81;100.00;99897.38;7383207;19;20018;-78
2022/09/02 05:27:05;;;;;;;3.22;1.05;;;;;;;18.79;100.00;99897.16;7388164;19;20048;-78
2022/09/02 05:29:34;;;;;;;1.30;0.73;;;;;;;18.78;100.00;99893.56;7385059;19;20014;-77
2022/09/02 05:32:00;;;;;;;9.57;1.17;;;;;;;18.87;100.00;99892.44;7390135;19;20022;-78
2022/09/02 05:34:27;;;;;;;2.30;0.70;;;;;;;18.87;100.00;99895.25;7385213;19;20489;-78
2022/09/02 05:36:56;;;;;;;20.85;1.15;;;;;;;19.01;100.00;99896.09;7387402;19;20015;-78
2022/09/02 05:39:25;;;;;;;11.20;0.93;;;;;;;19.04;100.00;99898.63;7382558;19;20014;-78
2022/09/02 05:41:51;;;;;;;1.98;0.80;;;;;;;19.08;100.00;99892.69;7383769;19;20475;-78
2022/09/02 05:44:17;;;;;;;6.95;0.57;;;;;;;19.20;100.00;99889.16;7385527;19;20029;-79
2022/09/02 05:46:44;;;;;;;3.25;0.70;;;;;;;19.22;100.00;99892.22;7387157;19;20027;-79
2022/09/02 05:49:17;;;;;;;5.43;0.95;;;;;;;19.37;100.00;99886.91;7383712;19;20018;-78
2022/09/02 05:51:59;;;;;;;2.20;0.90;;;;;;;19.50;100.00;99889.78;7386936;19;20021;-79
2022/09/02 05:54:33;;;;;;;1.38;0.95;;;;;;;19.53;100.00;99885.88;7384036;19;20026;-79
2022/09/02 05:57:07;;;;;;;1.52;0.70;;;;;;;19.52;100.00;99890.00;7386953;19;20067;-79
2022/09/02 05:59:38;;;;;;;3.55;0.95;;;;;;;19.50;100.00;99884.13;7381103;19;20022;-79
2022/09/02 06:02:05;;;;;;;3.67;1.00;;;;;;;19.61;100.00;99889.63;7388779;19;20018;-79
2022/09/02 06:04:36;;;;;;;2.97;1.00;;;;;;;19.61;100.00;99883.97;7384017;19;20026;-79
2022/09/02 06:07:03;;;;;;;7.88;0.60;;;;;;;19.48;100.00;99886.75;7385741;19;20038;-78
2022/09/02 06:09:29;;;;;;;1.95;0.63;;;;;;;19.49;100.00;99893.91;7384066;19;20023;-79
2022/09/02 06:11:56;;;;;;;9.50;1.83;;;;;;;19.45;100.00;99884.97;7382676;19;20041;-80
2022/09/02 06:14:27;;;;;;;4.35;0.60;;;;;;;19.56;100.00;99886.88;7383912;19;20030;-79
2022/09/02 06:16:56;;;;;;;3.88;0.80;;;;;;;19.70;100.00;99879.97;7386417;19;20051;-79
2022/09/02 06:19:33;;;;;;;0.70;0.70;;;;;;;19.63;100.00;99887.03;7379984;19;20025;-80
2022/09/02 06:22:02;;;;;;;4.70;1.20;;;;;;;19.77;100.00;99885.00;7383871;19;20014;-80
2022/09/02 06:24:31;;;;;;;14.75;1.58;;;;;;;19.71;100.00;99886.41;7383619;19;20025;-78
2022/09/02 06:27:01;;;;;;;1.25;0.77;;;;;;;19.82;100.00;99884.13;7384179;19;20011;-78
2022/09/02 06:29:28;;;;;;;4.82;1.10;;;;;;;19.77;100.00;99872.94;7382779;19;20025;-79
2022/09/02 06:31:55;;;;;;;2.72;1.05;;;;;;;19.99;100.00;99881.06;7387635;19;20331;-79
2022/09/02 06:34:25;;;;;;;15.43;1.15;;;;;;;20.29;100.00;99867.44;7389696;19;20019;-80
2022/09/02 06:36:54;;;;;;;5.07;1.38;;;;;;;20.52;100.00;99876.25;7392178;19;20779;-79
2022/09/02 06:39:22;;;;;;;3.28;0.82;;;;;;;20.52;100.00;99868.53;7387357;19;20014;-79
2022/09/02 06:41:49;;;;;;;6.38;1.35;;;;;;;20.52;100.00;99862.84;7390731;19;20119;-80
2022/09/02 06:44:20;;;;;;;3.47;1.33;;;;;;;20.66;100.00;99866.44;7390932;19;20011;-79
2022/09/02 06:46:54;;;;;;;4.32;0.93;;;;;;;20.77;100.00;99864.13;7392300;19;20649;-79
2022/09/02 06:49:22;;;;;;;5.05;1.20;;;;;;;20.86;100.00;99863.69;7390159;19;20078;-78
2022/09/02 06:51:51;;;;;;;2.47;0.88;;;;;;;20.79;100.00;99860.78;7391930;19;20447;-79
2022/09/02 06:54:20;;;;;;;3.00;0.88;;;;;;;20.99;100.00;99857.25;7389274;19;20468;-77
2022/09/02 06:56:50;;;;;;;7.40;2.17;;;;;;;20.96;100.00;99850.59;7392300;19;20100;-78
2022/09/02 06:59:21;;;;;;;7.68;2.95;;;;;;;21.03;100.00;99855.63;7386880;19;20014;-78
2022/09/02 07:01:51;;;;;;;2.55;0.80;;;;;;;21.03;100.00;99849.97;7394173;19;20019;-78
2022/09/02 07:07:07;;;;;;;1.73;1.15;;;;;;;21.34;100.00;99844.66;7392158;19;20047;-79
2022/09/02 07:09:40;;;;;;;7.65;1.33;;;;;;;21.37;100.00;99843.56;7389787;19;20552;-78
2022/09/02 07:12:11;;;;;;;3.22;1.00;;;;;;;21.64;100.00;99842.88;7389509;19;20078;-78
2022/09/02 07:14:45;;;;;;;9.70;1.88;;;;;;;21.65;100.00;99846.47;7388143;19;20018;-79
2022/09/02 07:17:16;;;;;;;6.35;1.30;;;;;;;21.83;100.00;99848.38;7391721;19;20018;-78
2022/09/02 07:19:45;;;;;;;4.25;1.17;;;;;;;21.93;100.00;99843.75;7388842;19;20049;-78
2022/09/02 07:22:12;;;;;;;4.20;1.02;;;;;;;22.00;100.00;99853.63;7389024;19;20015;-80
2022/09/02 07:24:42;;;;;;;6.30;1.48;;;;;;;21.91;100.00;99845.59;7388686;19;20021;-80
2022/09/02 07:27:10;;;;;;;7.10;1.63;;;;;;;21.86;100.00;99847.28;7391633;19;20029;-80
2022/09/02 07:29:37;;;;;;;4.90;1.17;;;;;;;21.95;100.00;99840.34;7389113;19;20014;-80
2022/09/02 07:32:04;;;;;;;2.53;0.68;;;;;;;21.95;100.00;99846.78;7392113;19;20021;-79
2022/09/02 07:34:30;;;;;;;4.15;1.45;;;;;;;22.14;100.00;99840.88;7388917;19;20014;-79
2022/09/02 07:36:58;;;;;;;4.63;1.10;;;;;;;22.26;100.00;99848.50;7389582;19;20037;-79
2022/09/02 07:39:24;;;;;;;6.53;1.38;;;;;;;22.15;100.00;99848.84;7387764;19;20041;-79
2022/09/02 07:41:51;;;;;;;3.95;1.65;;;;;;;22.25;100.00;99835.66;7387841;19;20025;-79
2022/09/02 07:44:20;;;;;;;7.88;1.17;;;;;;;22.31;100.00;99835.50;7389699;19;20011;-79
2022/09/02 07:46:48;;;;;;;2.65;0.73;;;;;;;22.42;100.00;99833.13;7391427;19;20046;-78
2022/09/02 07:49:19;;;;;;;7.82;1.50;;;;;;;21.73;100.00;99844.47;7391862;19;20018;-79
2022/09/02 07:51:48;;;;;;;3.97;1.17;;;;;;;21.36;100.00;99842.03;7391262;19;20015;-79
2022/09/02 07:54:20;;;;;;;2.00;0.95;;;;;;;21.24;100.00;99841.53;7389166;19;20037;-79
2022/09/02 07:56:48;;;;;;;3.42;1.00;;;;;;;22.31;100.00;99839.09;7389791;19;20369;-79
2022/09/02 07:59:16;;;;;;;3.58;1.40;;;;;;;22.51;100.00;99829.78;7389046;19;20018;-81
2022/09/02 08:01:44;;;;;;;2.95;0.85;;;;;;;22.57;100.00;99830.38;7390834;19;20018;-78
2022/09/02 08:04:12;;;;;;;4.60;1.58;;;;;;;22.49;100.00;99831.66;7389953;19;20014;-79
2022/09/02 08:06:40;;;;;;;9.02;0.85;;;;;;;22.50;100.00;99828.25;7388918;19;20018;-78
2022/09/02 08:09:11;;;;;;;4.68;1.25;;;;;;;22.46;100.00;99832.75;7390216;19;20021;-79
2022/09/02 08:11:39;;;;;;;3.97;1.73;;;;;;;22.40;100.00;99830.09;7390283;19;20037;-78
2022/09/02 08:14:11;;;;;;;6.63;1.98;;;;;;;22.34;100.00;99820.97;7389740;19;20022;-78
2022/09/02 08:16:38;;;;;;;6.22;0.95;;;;;;;22.56;100.00;99825.25;7388612;19;20014;-78
2022/09/02 08:19:06;;;;;;;4.38;1.02;;;;;;;22.83;100.00;99820.88;7388043;19;20033;-77
2022/09/02 08:21:32;;;;;;;7.85;1.50;;;;;;;22.77;100.00;99808.91;7391477;19;20022;-79
2022/09/02 08:23:59;;;;;;;4.63;1.98;;;;;;;22.42;100.00;99821.78;7388060;19;20038;-78
2022/09/02 08:26:27;;;;;;;9.02;1.92;;;;;;;22.38;100.00;99812.09;7388640;19;20025;-79
2022/09/02 08:28:56;;;;;;;6.45;1.95;;;;;;;22.67;100.00;99810.00;7388008;19;20073;-78
2022/09/02 08:31:23;;;;;;;4.60;1.42;;;;;;;22.73;100.00;99810.59;7390439;19;20014;-78
2022/09/02 08:33:49;;;;;;;3.60;0.80;;;;;;;22.94;100.00;99802.72;7386435;19;20485;-78
2022/09/02 08:36:15;;;;;;;3.95;1.25;;;;;;;22.98;100.00;99805.94;7389985;19;20484;-78
2022/09/02 08:38:41;;;;;;;3.55;1.20;;;;;;;23.10;100.00;99804.31;7387367;19;21210;-77
2022/09/02 08:41:29;;;;;;;6.15;1.85;;;;;;;22.96;100.00;99800.84;7386879;19;20021;-78
2022/09/02 08:43:59;;;;;;;5.50;1.77;;;;;;;23.12;100.00;99804.50;7387899;19;20019;-77
2022/09/02 08:46:30;;;;;;;3.13;0.75;;;;;;;23.21;100.00;99812.47;7389512;19;20378;-78
2022/09/02 08:48:58;;;;;;;;;;;;;;;23.23;100.00;99804.16;7386136;19;20077;-78
2022/09/02 08:51:32;;;;;;;3.22;0.93;;;;;;;23.25;100.00;99802.28;7388762;19;19929;-78
2022/09/02 08:54:04;;;;;;;4.35;1.17;;;;;;;23.23;100.00;99804.91;7387284;19;20514;-78
2022/09/02 08:56:31;;;;;;;5.47;0.73;;;;;;;23.22;100.00;99800.53;7387124;19;20022;-77
2022/09/02 08:59:01;;;;;;;2.17;0.50;;;;;;;23.12;100.00;99801.66;7386342;19;20010;-78
2022/09/02 09:01:54;;;;;;;9.90;1.15;;;;;;;23.00;100.00;99794.81;7391333;19;20051;-79
2022/09/02 09:04:51;;;;;;;4.07;1.25;;;;;;;23.10;100.00;99785.19;7387426;19;20018;-78
2022/09/02 09:07:17;;;;;;;2.95;1.17;;;;;;;23.17;100.00;99778.00;7388233;19;20033;-77
2022/09/02 09:10:19;;;;;;;4.13;1.08;;;;;;;23.20;100.00;99786.13;7385242;19;20018;-78
2022/09/02 09:12:59;;;;;;;6.50;2.50;;;;;;;23.25;100.00;99782.38;7385244;19;20025;-78
2022/09/02 09:15:39;;;;;;;3.42;1.35;;;;;;;23.28;100.00;99789.00;7388471;19;20014;-79
2022/09/02 09:18:08;;;;;;;3.10;1.40;;;;;;;23.34;100.00;99781.09;7383349;19;20014;-78
2022/09/02 09:20:39;;;;;;;2.72;1.08;;;;;;;23.62;100.00;99778.09;7384973;19;20101;-77
2022/09/02 09:23:28;;;;;;;3.67;0.65;;;;;;;23.81;100.00;99775.59;7385343;19;20021;-77
2022/09/02 09:26:07;;;;;;;4.20;1.52;;;;;;;23.93;100.00;99776.72;7384194;19;20022;-77
2022/09/02 09:28:43;;;;;;;3.33;0.68;;;;;;;24.14;100.00;99773.72;7385329;19;20779;-77
2022/09/02 09:31:13;;;;;;;4.38;1.48;;;;;;;24.47;100.00;99768.88;7389003;19;20018;-78
2022/09/02 09:34:04;;;;;;;1.85;0.75;;;;;;;24.80;100.00;99764.78;7386919;19;20806;-79
2022/09/02 09:36:39;;;;;;;3.92;0.77;;;;;;;25.12;100.00;99766.91;7387725;19;20022;-79
2022/09/02 09:39:25;;;;;;;3.85;1.25;;;;;;;25.39;100.00;99762.91;7384881;19;20015;-79
2022/09/02 09:41:54;;;;;;;3.63;0.38;;;;;;;25.58;100.00;99771.72;7383776;19;20022;-79
2022/09/02 09:44:47;;;;;;;4.03;0.82;;;;;;;25.43;100.00;99751.88;7383988;19;20038;-79
2022/09/02 09:47:19;;;;;;;0.68;0.13;;;;;;;25.24;100.00;99751.59;7388642;19;20022;-82
2022/09/02 09:49:47;;;;;;;1.35;0.45;;;;;;;25.07;100.00;99745.06;7386460;19;20014;-80
2022/09/02 09:52:27;;;;;;;5.07;0.47;;;;;;;24.95;100.00;99749.72;7389317;19;20014;-79
2022/09/02 09:55:16;;;;;;;1.55;0.55;;;;;;;25.15;100.00;99752.22;7384573;19;20015;-80
2022/09/02 09:57:45;;;;;;;3.58;1.35;;;;;;;25.23;100.00;99750.09;7382500;19;20620;-80
2022/09/02 10:00:31;;;;;;;1.73;0.40;;;;;;;25.22;100.00;99757.13;7384993;19;20025;-79
2022/09/02 10:03:03;;;;;;;1.73;0.40;;;;;;;25.09;100.00;99754.56;7381666;19;20057;-79
2022/09/02 10:05:34;;;;;;;3.20;0.60;;;;;;;25.01;100.00;99751.00;7383832;19;20029;-79
2022/09/02 10:08:18;;;;;;;5.88;0.70;;;;;;;25.01;100.00;99745.31;7386923;19;20018;-79
2022/09/02 10:10:55;;;;;;;2.97;0.50;;;;;;;24.95;100.00;99739.06;7392756;19;20014;-79
2022/09/02 10:13:25;;;;;;;3.75;0.70;;;;;;;24.96;100.00;99739.81;7394691;19;20018;-80
2022/09/02 10:16:11;;;;;;;3.20;0.50;;;;;;;25.02;100.00;99743.19;7391462;19;20019;-79
2022/09/02 10:18:49;;;;;;;12.50;0.93;;;;;;;25.29;100.00;99747.03;7391242;19;20022;-79
2022/09/02 10:21:34;;;;;;;0.82;0.45;;;;;;;25.52;100.00;99745.53;7390642;19;20468;-78
2022/09/02 10:24:36;;;;;;;1.27;0.32;;;;;;;25.72;100.00;99746.53;7393837;19;20022;-79
2022/09/02 10:27:10;;;;;;;5.90;1.58;;;;;;;25.86;100.00;99733.44;7392589;19;20111;-78
2022/09/02 10:29:53;;;;;;;3.47;1.13;;;;;;;25.90;100.00;99733.03;7389949;19;20021;-80
2022/09/02 10:32:42;;;;;;;3.30;0.88;;;;;;;25.95;100.00;99738.50;7390119;19;20025;-79
2022/09/02 10:35:14;;;;;;;2.47;1.38;;;;;;;25.94;100.00;99737.00;7391764;19;20022;-79
2022/09/02 10:38:06;;;;;;;4.40;1.05;;;;;;;26.03;100.00;99735.56;7386429;19;20019;-80
2022/09/02 10:40:45;;;;;;;0.77;0.32;;;;;;;26.07;100.00;99724.50;7387994;19;20353;-80
2022/09/02 10:43:46;;;;;;;1.90;0.83;;;;;;;25.96;100.00;99727.84;7386903;19;20025;-79
2022/09/02 10:46:19;;;;;;;3.22;0.98;;;;;;;25.92;100.00;99730.34;7388032;19;20010;-79
2022/09/02 10:49:12;;;;;;;2.15;0.95;;;;;;;25.77;100.00;99716.25;7392116;19;20010;-78
2022/09/02 10:51:47;;;;;;;1.95;0.35;;;;;;;25.58;100.00;99717.53;7391686;19;20421;-78
2022/09/02 10:54:50;;;;;;;1.15;0.25;;;;;;;25.49;100.00;99715.31;7391361;19;20011;-78
2022/09/02 10:57:22;;;;;;;0.65;0.35;;;;;;;25.51;100.00;99712.63;7391231;19;20011;-78
2022/09/02 11:00:11;;;;;;;4.03;1.02;;;;;;;25.58;100.00;99702.50;7392170;19;20014;-78
2022/09/02 11:02:47;;;;;;;0.85;0.30;;;;;;;25.61;100.00;99692.78;7393490;19;20041;-78
2022/09/02 11:05:26;;;;;;;1.42;0.50;;;;;;;25.62;100.00;99687.84;7389269;19;20018;-78
2022/09/02 11:08:11;;;;;;;0.95;0.30;;;;;;;25.75;100.00;99690.38;7388799;19;20014;-78
2022/09/02 11:10:42;;;;;;;3.78;0.30;;;;;;;25.84;100.00;99698.25;7393139;19;20015;-78
2022/09/02 11:13:18;;;;;;;1.80;0.60;;;;;;;25.69;100.00;99684.91;7387890;19;20014;-78
2022/09/02 11:15:47;;;;;;;5.82;0.63;;;;;;;25.61;100.00;99683.47;7390822;19;20467;-78
2022/09/02 11:18:21;;;;;;;1.65;0.52;;;;;;;25.62;100.00;99688.59;7385143;19;20023;-78
2022/09/02 11:20:56;;;;;;;3.40;0.90;;;;;;;25.53;100.00;99687.16;7388225;19;20022;-78
2022/09/02 11:23:36;;;;;;;8.13;0.73;;;;;;;25.73;100.00;99687.38;7390450;19;20014;-78
2022/09/02 11:26:26;;;;;;;1.60;0.73;;;;;;;25.99;100.00;99669.59;7390179;19;20033;-78
2022/09/02 11:28:53;;;;;;;;;;;;;;;26.19;100.00;99674.13;7387587;19;20022;-78
2022/09/02 11:31:33;;;;;;;1.27;0.40;;;;;;;26.30;100.00;99676.47;7391829;19;20336;-78
2022/09/02 11:34:10;;;;;;;2.60;0.25;;;;;;;26.40;100.00;99665.88;7388086;19;20042;-78
2022/09/02 11:36:38;;;;;;;1.95;0.50;;;;;;;26.40;100.00;99651.59;7389380;19;20035;-78
2022/09/02 11:39:31;;;;;;;0.55;0.20;;;;;;;26.59;100.00;99657.44;7386178;19;20025;-78
2022/09/02 11:42:12;;;;;;;2.25;0.40;;;;;;;26.77;100.00;99656.06;7389326;19;20029;-78
2022/09/02 11:44:44;;;;;;;0.57;0.30;;;;;;;26.71;100.00;99657.66;7387875;19;20043;-78